SALOWS 241450Z 34007KT CAVOK 17/05 Q1019 NOSIG
FTLOWS 241115Z 2412/2512 34006KT CAVOK TX20/2415Z TN07/2512Z BECMG 2417/2419 27007KT 9999 SCT040 BKN060 TEMPO 2420/2424 -RA BECMG 2500/2502 -RA TEMPO 2503/2506 30013KT RA SCT030 BKN050 TEMPO 2509/2512 32015G25KT NSW